sensor_id;sensor_type;location;lat;lon;timestamp;pressure;altitude;pressure_sealevel;temperature;humidity
73245;BME280;61460;41.158;-73.238;2022-12-22T00:00:44;103150.45;;;24.69;34.16
73245;BME280;61460;41.158;-73.238;2022-12-22T00:03:12;103156.37;;;24.66;34.39
73245;BME280;61460;41.158;-73.238;2022-12-22T00:05:39;103159.85;;;24.67;34.46
73245;BME280;61460;41.158;-73.238;2022-12-22T00:08:09;103156.49;;;24.67;34.48
73245;BME280;61460;41.158;-73.238;2022-12-22T00:10:40;103160.69;;;24.70;34.47
73245;BME280;61460;41.158;-73.238;2022-12-22T00:13:10;103162.67;;;24.72;34.40
73245;BME280;61460;41.158;-73.238;2022-12-22T00:15:41;103161.52;;;24.82;34.12
73245;BME280;61460;41.158;-73.238;2022-12-22T00:18:14;103160.38;;;24.73;34.24
73245;BME280;61460;41.158;-73.238;2022-12-22T00:20:42;103152.03;;;24.78;34.13
73245;BME280;61460;41.158;-73.238;2022-12-22T00:23:13;103142.82;;;24.75;34.26
73245;BME280;61460;41.158;-73.238;2022-12-22T00:25:44;103142.69;;;24.73;34.31
73245;BME280;61460;41.158;-73.238;2022-12-22T00:28:14;103144.81;;;24.68;34.43
73245;BME280;61460;41.158;-73.238;2022-12-22T00:30:45;103144.09;;;24.75;34.42
73245;BME280;61460;41.158;-73.238;2022-12-22T00:33:17;103140.96;;;24.96;34.06
73245;BME280;61460;41.158;-73.238;2022-12-22T00:35:46;103137.87;;;24.85;33.94
73245;BME280;61460;41.158;-73.238;2022-12-22T00:38:19;103139.59;;;24.76;34.14
73245;BME280;61460;41.158;-73.238;2022-12-22T00:40:47;103138.64;;;24.70;34.32
73245;BME280;61460;41.158;-73.238;2022-12-22T00:43:18;103143.56;;;24.77;34.28
73245;BME280;61460;41.158;-73.238;2022-12-22T00:45:49;103146.25;;;24.80;34.24
73245;BME280;61460;41.158;-73.238;2022-12-22T00:48:21;103150.78;;;24.78;34.36
73245;BME280;61460;41.158;-73.238;2022-12-22T00:50:50;103145.75;;;24.65;34.55
73245;BME280;61460;41.158;-73.238;2022-12-22T00:53:20;103152.58;;;25.22;33.41
73245;BME280;61460;41.158;-73.238;2022-12-22T00:55:51;103150.77;;;24.88;33.94
73245;BME280;61460;41.158;-73.238;2022-12-22T00:58:22;103153.90;;;24.89;33.92
73245;BME280;61460;41.158;-73.238;2022-12-22T01:00:53;103153.26;;;24.86;34.08
73245;BME280;61460;41.158;-73.238;2022-12-22T01:03:23;103156.44;;;24.85;34.10
73245;BME280;61460;41.158;-73.238;2022-12-22T01:05:54;103154.46;;;24.84;34.14
73245;BME280;61460;41.158;-73.238;2022-12-22T01:08:24;103153.81;;;24.83;34.23
73245;BME280;61460;41.158;-73.238;2022-12-22T01:10:55;103147.97;;;24.76;33.91
73245;BME280;61460;41.158;-73.238;2022-12-22T01:13:27;103150.86;;;24.70;34.07
73245;BME280;61460;41.158;-73.238;2022-12-22T01:15:56;103148.47;;;24.58;34.41
73245;BME280;61460;41.158;-73.238;2022-12-22T01:18:27;103152.69;;;24.58;34.15
73245;BME280;61460;41.158;-73.238;2022-12-22T01:20:58;103146.59;;;24.67;34.12
73245;BME280;61460;41.158;-73.238;2022-12-22T01:23:28;103142.04;;;24.65;34.13
73245;BME280;61460;41.158;-73.238;2022-12-22T01:25:58;103140.01;;;24.67;34.16
73245;BME280;61460;41.158;-73.238;2022-12-22T01:28:30;103132.92;;;24.68;34.16
73245;BME280;61460;41.158;-73.238;2022-12-22T01:31:12;103139.27;;;24.93;33.53
73245;BME280;61460;41.158;-73.238;2022-12-22T01:33:31;103135.52;;;24.70;33.51
73245;BME280;61460;41.158;-73.238;2022-12-22T01:36:01;103139.96;;;24.65;33.99
73245;BME280;61460;41.158;-73.238;2022-12-22T01:38:32;103138.46;;;24.66;34.02
73245;BME280;61460;41.158;-73.238;2022-12-22T01:41:04;103138.40;;;24.67;34.04
73245;BME280;61460;41.158;-73.238;2022-12-22T01:43:34;103138.89;;;24.63;34.11
73245;BME280;61460;41.158;-73.238;2022-12-22T01:48:34;103139.08;;;24.88;33.15
73245;BME280;61460;41.158;-73.238;2022-12-22T01:51:10;103136.02;;;24.85;33.30
73245;BME280;61460;41.158;-73.238;2022-12-22T01:53:36;103135.75;;;24.64;33.76
73245;BME280;61460;41.158;-73.238;2022-12-22T01:56:07;103138.53;;;24.69;33.64
73245;BME280;61460;41.158;-73.238;2022-12-22T01:58:41;103134.81;;;24.73;33.68
73245;BME280;61460;41.158;-73.238;2022-12-22T02:01:07;103130.25;;;24.71;33.78
73245;BME280;61460;41.158;-73.238;2022-12-22T02:03:38;103126.54;;;24.72;33.76
73245;BME280;61460;41.158;-73.238;2022-12-22T02:06:17;103129.59;;;24.81;33.62
73245;BME280;61460;41.158;-73.238;2022-12-22T02:08:42;103134.26;;;24.79;33.75
73245;BME280;61460;41.158;-73.238;2022-12-22T02:11:19;103133.35;;;24.84;33.69
73245;BME280;61460;41.158;-73.238;2022-12-22T02:13:51;103135.27;;;24.87;33.43
73245;BME280;61460;41.158;-73.238;2022-12-22T02:16:16;103135.14;;;24.59;33.99
73245;BME280;61460;41.158;-73.238;2022-12-22T02:18:47;103134.59;;;24.74;33.71
73245;BME280;61460;41.158;-73.238;2022-12-22T02:21:17;103137.71;;;24.62;33.81
73245;BME280;61460;41.158;-73.238;2022-12-22T02:23:57;103138.95;;;24.58;34.05
73245;BME280;61460;41.158;-73.238;2022-12-22T02:26:22;103145.66;;;24.53;34.02
73245;BME280;61460;41.158;-73.238;2022-12-22T02:28:45;103155.37;;;24.45;34.08
73245;BME280;61460;41.158;-73.238;2022-12-22T02:31:15;103161.17;;;24.43;34.04
73245;BME280;61460;41.158;-73.238;2022-12-22T02:33:46;103161.06;;;24.21;33.78
73245;BME280;61460;41.158;-73.238;2022-12-22T02:36:21;103167.20;;;23.83;34.38
73245;BME280;61460;41.158;-73.238;2022-12-22T02:38:54;103163.82;;;23.62;34.51
73245;BME280;61460;41.158;-73.238;2022-12-22T02:41:25;103161.43;;;24.02;34.44
73245;BME280;61460;41.158;-73.238;2022-12-22T02:44:01;103156.30;;;24.23;34.15
73245;BME280;61460;41.158;-73.238;2022-12-22T02:46:23;103156.89;;;24.19;34.26
73245;BME280;61460;41.158;-73.238;2022-12-22T02:48:53;103162.87;;;24.30;34.12
73245;BME280;61460;41.158;-73.238;2022-12-22T02:51:24;103165.12;;;24.27;34.08
73245;BME280;61460;41.158;-73.238;2022-12-22T02:53:51;103169.51;;;24.23;34.09
73245;BME280;61460;41.158;-73.238;2022-12-22T02:56:22;103175.31;;;24.26;33.89
73245;BME280;61460;41.158;-73.238;2022-12-22T02:58:52;103172.33;;;23.87;34.04
73245;BME280;61460;41.158;-73.238;2022-12-22T03:01:22;103174.22;;;23.64;34.67
73245;BME280;61460;41.158;-73.238;2022-12-22T03:03:52;103177.37;;;23.92;34.47
73245;BME280;61460;41.158;-73.238;2022-12-22T03:06:23;103178.29;;;23.81;34.42
73245;BME280;61460;41.158;-73.238;2022-12-22T03:08:54;103177.20;;;23.54;34.43
73245;BME280;61460;41.158;-73.238;2022-12-22T03:11:24;103184.48;;;23.74;36.05
73245;BME280;61460;41.158;-73.238;2022-12-22T03:13:55;103189.68;;;24.03;35.30
73245;BME280;61460;41.158;-73.238;2022-12-22T03:16:27;103193.28;;;24.04;36.10
73245;BME280;61460;41.158;-73.238;2022-12-22T03:18:57;103193.99;;;24.12;35.85
73245;BME280;61460;41.158;-73.238;2022-12-22T03:21:27;103193.65;;;24.22;35.62
73245;BME280;61460;41.158;-73.238;2022-12-22T03:23:58;103205.11;;;24.08;36.04
73245;BME280;61460;41.158;-73.238;2022-12-22T03:26:30;103212.41;;;24.10;35.84
73245;BME280;61460;41.158;-73.238;2022-12-22T03:28:59;103211.63;;;23.59;35.46
73245;BME280;61460;41.158;-73.238;2022-12-22T03:31:28;103211.62;;;23.80;34.74
73245;BME280;61460;41.158;-73.238;2022-12-22T03:33:59;103213.73;;;23.85;35.45
73245;BME280;61460;41.158;-73.238;2022-12-22T03:36:30;103218.76;;;23.84;35.61
73245;BME280;61460;41.158;-73.238;2022-12-22T03:39:01;103220.22;;;23.88;35.97
73245;BME280;61460;41.158;-73.238;2022-12-22T03:41:31;103216.88;;;23.89;36.09
73245;BME280;61460;41.158;-73.238;2022-12-22T03:44:03;103222.25;;;23.83;35.97
73245;BME280;61460;41.158;-73.238;2022-12-22T03:46:32;103226.06;;;23.59;35.77
73245;BME280;61460;41.158;-73.238;2022-12-22T03:49:04;103228.70;;;23.62;35.24
73245;BME280;61460;41.158;-73.238;2022-12-22T03:51:35;103227.25;;;23.45;35.92
73245;BME280;61460;41.158;-73.238;2022-12-22T03:54:05;103233.26;;;23.78;35.52
73245;BME280;61460;41.158;-73.238;2022-12-22T03:56:35;103236.40;;;23.87;35.51
73245;BME280;61460;41.158;-73.238;2022-12-22T03:59:06;103231.02;;;23.92;35.47
73245;BME280;61460;41.158;-73.238;2022-12-22T04:01:38;103225.16;;;23.89;35.52
73245;BME280;61460;41.158;-73.238;2022-12-22T04:04:07;103223.00;;;23.33;35.60
73245;BME280;61460;41.158;-73.238;2022-12-22T04:06:38;103224.19;;;23.41;35.08
73245;BME280;61460;41.158;-73.238;2022-12-22T04:09:09;103224.53;;;23.47;35.82
73245;BME280;61460;41.158;-73.238;2022-12-22T04:11:39;103221.49;;;23.79;35.45
73245;BME280;61460;41.158;-73.238;2022-12-22T04:14:09;103229.01;;;23.81;35.22
73245;BME280;61460;41.158;-73.238;2022-12-22T04:16:40;103232.47;;;23.80;35.26
73245;BME280;61460;41.158;-73.238;2022-12-22T04:19:10;103232.51;;;23.76;35.30
73245;BME280;61460;41.158;-73.238;2022-12-22T04:21:42;103239.88;;;23.52;35.13
73245;BME280;61460;41.158;-73.238;2022-12-22T04:24:13;103227.83;;;23.73;34.89
73245;BME280;61460;41.158;-73.238;2022-12-22T04:26:43;103228.87;;;23.46;35.80
73245;BME280;61460;41.158;-73.238;2022-12-22T04:29:13;103233.04;;;23.79;35.40
73245;BME280;61460;41.158;-73.238;2022-12-22T04:31:44;103235.28;;;23.85;35.66
73245;BME280;61460;41.158;-73.238;2022-12-22T04:34:14;103232.81;;;23.34;35.63
73245;BME280;61460;41.158;-73.238;2022-12-22T04:36:45;103227.53;;;23.29;35.39
73245;BME280;61460;41.158;-73.238;2022-12-22T04:39:16;103229.19;;;23.45;35.37
73245;BME280;61460;41.158;-73.238;2022-12-22T04:41:46;103225.24;;;23.55;35.34
73245;BME280;61460;41.158;-73.238;2022-12-22T04:44:17;103223.49;;;23.75;35.04
73245;BME280;61460;41.158;-73.238;2022-12-22T04:46:47;103222.91;;;23.68;35.06
73245;BME280;61460;41.158;-73.238;2022-12-22T04:49:18;103230.36;;;23.85;34.96
73245;BME280;61460;41.158;-73.238;2022-12-22T04:51:49;103228.56;;;23.12;35.41
73245;BME280;61460;41.158;-73.238;2022-12-22T04:54:20;103229.37;;;23.27;35.07
73245;BME280;61460;41.158;-73.238;2022-12-22T04:56:51;103225.45;;;23.30;35.44
73245;BME280;61460;41.158;-73.238;2022-12-22T04:59:20;103207.48;;;23.51;35.48
73245;BME280;61460;41.158;-73.238;2022-12-22T05:01:51;103205.19;;;23.48;35.16
73245;BME280;61460;41.158;-73.238;2022-12-22T05:04:22;103208.14;;;23.53;35.22
73245;BME280;61460;41.158;-73.238;2022-12-22T05:06:52;103204.77;;;23.46;35.12
73245;BME280;61460;41.158;-73.238;2022-12-22T05:09:23;103208.52;;;23.29;35.05
73245;BME280;61460;41.158;-73.238;2022-12-22T05:11:53;103215.55;;;23.23;34.97
73245;BME280;61460;41.158;-73.238;2022-12-22T05:14:24;103216.14;;;23.28;34.99
73245;BME280;61460;41.158;-73.238;2022-12-22T05:16:55;103215.99;;;23.15;35.37
73245;BME280;61460;41.158;-73.238;2022-12-22T05:19:25;103216.56;;;23.42;35.31
73245;BME280;61460;41.158;-73.238;2022-12-22T05:21:57;103203.83;;;23.41;34.89
73245;BME280;61460;41.158;-73.238;2022-12-22T05:24:26;103190.99;;;23.38;35.45
73245;BME280;61460;41.158;-73.238;2022-12-22T05:26:57;103183.03;;;23.35;34.97
73245;BME280;61460;41.158;-73.238;2022-12-22T05:29:28;103183.66;;;22.97;35.39
73245;BME280;61460;41.158;-73.238;2022-12-22T05:31:58;103179.45;;;22.91;35.38
73245;BME280;61460;41.158;-73.238;2022-12-22T05:34:29;103178.80;;;23.10;36.02
73245;BME280;61460;41.158;-73.238;2022-12-22T05:37:00;103180.70;;;23.20;36.11
73245;BME280;61460;41.158;-73.238;2022-12-22T05:39:31;103189.44;;;23.16;35.84
73245;BME280;61460;41.158;-73.238;2022-12-22T05:42:01;103185.03;;;23.33;35.93
73245;BME280;61460;41.158;-73.238;2022-12-22T05:44:32;103179.42;;;23.32;35.49
73245;BME280;61460;41.158;-73.238;2022-12-22T05:47:03;103181.67;;;22.85;35.68
73245;BME280;61460;41.158;-73.238;2022-12-22T05:49:34;103191.14;;;23.07;35.44
73245;BME280;61460;41.158;-73.238;2022-12-22T05:52:04;103193.15;;;23.21;35.19
73245;BME280;61460;41.158;-73.238;2022-12-22T05:54:34;103199.75;;;23.21;35.75
73245;BME280;61460;41.158;-73.238;2022-12-22T05:57:05;103204.20;;;23.41;36.10
73245;BME280;61460;41.158;-73.238;2022-12-22T05:59:36;103194.91;;;23.52;36.03
73245;BME280;61460;41.158;-73.238;2022-12-22T06:02:06;103193.43;;;23.09;35.62
73245;BME280;61460;41.158;-73.238;2022-12-22T06:04:37;103187.44;;;23.07;35.35
73245;BME280;61460;41.158;-73.238;2022-12-22T06:07:07;103190.41;;;23.13;35.71
73245;BME280;61460;41.158;-73.238;2022-12-22T06:09:39;103185.48;;;23.33;35.38
73245;BME280;61460;41.158;-73.238;2022-12-22T06:12:09;103182.82;;;23.40;35.56
73245;BME280;61460;41.158;-73.238;2022-12-22T06:14:39;103187.36;;;23.43;35.33
73245;BME280;61460;41.158;-73.238;2022-12-22T06:17:10;103186.75;;;23.33;35.02
73245;BME280;61460;41.158;-73.238;2022-12-22T06:19:41;103189.22;;;22.80;35.70
73245;BME280;61460;41.158;-73.238;2022-12-22T06:22:11;103191.77;;;23.15;34.87
73245;BME280;61460;41.158;-73.238;2022-12-22T06:24:42;103196.39;;;23.11;35.44
73245;BME280;61460;41.158;-73.238;2022-12-22T06:27:13;103199.61;;;23.24;35.48
73245;BME280;61460;41.158;-73.238;2022-12-22T06:29:43;103199.65;;;23.32;35.06
73245;BME280;61460;41.158;-73.238;2022-12-22T06:32:14;103199.23;;;23.28;35.24
73245;BME280;61460;41.158;-73.238;2022-12-22T06:34:44;103195.83;;;22.94;35.34
73245;BME280;61460;41.158;-73.238;2022-12-22T06:37:17;103184.50;;;23.01;35.20
73245;BME280;61460;41.158;-73.238;2022-12-22T06:39:46;103181.77;;;23.27;34.79
73245;BME280;61460;41.158;-73.238;2022-12-22T06:42:16;103179.67;;;23.12;36.28
73245;BME280;61460;41.158;-73.238;2022-12-22T06:44:47;103188.10;;;23.27;35.79
73245;BME280;61460;41.158;-73.238;2022-12-22T06:47:18;103184.67;;;23.34;35.86
73245;BME280;61460;41.158;-73.238;2022-12-22T06:49:48;103189.40;;;22.99;35.40
73245;BME280;61460;41.158;-73.238;2022-12-22T06:52:23;103188.56;;;22.74;35.48
73245;BME280;61460;41.158;-73.238;2022-12-22T06:54:50;103196.90;;;22.83;35.59
73245;BME280;61460;41.158;-73.238;2022-12-22T06:57:20;103193.59;;;23.17;35.34
73245;BME280;61460;41.158;-73.238;2022-12-22T06:59:51;103196.25;;;23.20;35.23
73245;BME280;61460;41.158;-73.238;2022-12-22T07:02:22;103198.26;;;23.32;35.62
73245;BME280;61460;41.158;-73.238;2022-12-22T07:04:53;103195.33;;;23.28;35.27
73245;BME280;61460;41.158;-73.238;2022-12-22T07:07:23;103197.98;;;22.76;35.62
73245;BME280;61460;41.158;-73.238;2022-12-22T07:09:53;103194.55;;;22.77;35.70
73245;BME280;61460;41.158;-73.238;2022-12-22T07:12:24;103197.03;;;22.91;35.37
73245;BME280;61460;41.158;-73.238;2022-12-22T07:14:55;103199.06;;;22.97;36.38
73245;BME280;61460;41.158;-73.238;2022-12-22T07:17:25;103202.57;;;23.23;36.12
73245;BME280;61460;41.158;-73.238;2022-12-22T07:19:56;103203.55;;;23.31;35.86
73245;BME280;61460;41.158;-73.238;2022-12-22T07:22:27;103201.97;;;23.33;36.17
73245;BME280;61460;41.158;-73.238;2022-12-22T07:24:58;103200.63;;;22.65;35.97
73245;BME280;61460;41.158;-73.238;2022-12-22T07:27:28;103202.52;;;22.85;35.49
73245;BME280;61460;41.158;-73.238;2022-12-22T07:29:59;103197.85;;;22.95;35.97
73245;BME280;61460;41.158;-73.238;2022-12-22T07:32:30;103200.45;;;23.19;35.43
73245;BME280;61460;41.158;-73.238;2022-12-22T07:35:00;103198.52;;;23.32;35.43
73245;BME280;61460;41.158;-73.238;2022-12-22T07:37:30;103184.30;;;23.30;35.19
73245;BME280;61460;41.158;-73.238;2022-12-22T07:40:01;103178.96;;;23.36;35.47
73245;BME280;61460;41.158;-73.238;2022-12-22T07:42:31;103182.73;;;22.88;35.31
73245;BME280;61460;41.158;-73.238;2022-12-22T07:45:03;103185.57;;;22.60;35.58
73245;BME280;61460;41.158;-73.238;2022-12-22T07:47:33;103171.31;;;23.04;35.03
73245;BME280;61460;41.158;-73.238;2022-12-22T07:50:04;103163.84;;;22.88;35.31
73245;BME280;61460;41.158;-73.238;2022-12-22T07:52:34;103170.21;;;23.10;35.12
73245;BME280;61460;41.158;-73.238;2022-12-22T07:55:06;103162.07;;;23.25;35.25
73245;BME280;61460;41.158;-73.238;2022-12-22T07:57:35;103162.13;;;23.22;35.37
73245;BME280;61460;41.158;-73.238;2022-12-22T08:00:08;103160.93;;;22.92;35.17
73245;BME280;61460;41.158;-73.238;2022-12-22T08:02:37;103155.33;;;22.56;35.65
73245;BME280;61460;41.158;-73.238;2022-12-22T08:05:08;103152.35;;;22.81;35.11
73245;BME280;61460;41.158;-73.238;2022-12-22T08:07:38;103148.92;;;22.86;35.31
73245;BME280;61460;41.158;-73.238;2022-12-22T08:10:10;103138.64;;;23.03;35.13
73245;BME280;61460;41.158;-73.238;2022-12-22T08:12:40;103139.55;;;23.02;35.06
73245;BME280;61460;41.158;-73.238;2022-12-22T08:15:11;103136.25;;;23.04;35.24
73245;BME280;61460;41.158;-73.238;2022-12-22T08:17:40;103133.73;;;23.10;35.28
73245;BME280;61460;41.158;-73.238;2022-12-22T08:20:11;103141.47;;;22.55;35.59
73245;BME280;61460;41.158;-73.238;2022-12-22T08:22:42;103140.37;;;22.70;35.33
73245;BME280;61460;41.158;-73.238;2022-12-22T08:25:13;103131.87;;;22.85;34.96
73245;BME280;61460;41.158;-73.238;2022-12-22T08:27:46;103129.82;;;22.92;35.56
73245;BME280;61460;41.158;-73.238;2022-12-22T08:30:14;103127.66;;;23.02;35.55
73245;BME280;61460;41.158;-73.238;2022-12-22T08:32:47;103122.20;;;23.07;35.20
73245;BME280;61460;41.158;-73.238;2022-12-22T08:35:15;103112.94;;;23.01;35.01
73245;BME280;61460;41.158;-73.238;2022-12-22T08:37:46;103115.37;;;22.44;35.58
73245;BME280;61460;41.158;-73.238;2022-12-22T08:40:21;103117.47;;;22.57;35.27
73245;BME280;61460;41.158;-73.238;2022-12-22T08:42:47;103118.49;;;22.74;35.52
73245;BME280;61460;41.158;-73.238;2022-12-22T08:45:17;103108.41;;;22.88;35.67
73245;BME280;61460;41.158;-73.238;2022-12-22T08:47:48;103108.25;;;22.91;35.31
73245;BME280;61460;41.158;-73.238;2022-12-22T08:50:19;103107.83;;;22.94;35.62
73245;BME280;61460;41.158;-73.238;2022-12-22T08:52:50;103097.35;;;22.90;35.40
73245;BME280;61460;41.158;-73.238;2022-12-22T08:55:20;103095.87;;;22.38;35.61
73245;BME280;61460;41.158;-73.238;2022-12-22T08:57:51;103090.91;;;22.65;35.32
73245;BME280;61460;41.158;-73.238;2022-12-22T09:00:22;103093.72;;;22.62;35.33
73245;BME280;61460;41.158;-73.238;2022-12-22T09:02:52;103091.78;;;22.83;36.34
73245;BME280;61460;41.158;-73.238;2022-12-22T09:05:23;103085.23;;;23.01;36.28
73245;BME280;61460;41.158;-73.238;2022-12-22T09:07:54;103089.30;;;22.99;36.32
73245;BME280;61460;41.158;-73.238;2022-12-22T09:10:24;103083.65;;;22.71;35.56
73245;BME280;61460;41.158;-73.238;2022-12-22T09:12:54;103094.32;;;22.42;35.82
73245;BME280;61460;41.158;-73.238;2022-12-22T09:15:25;103094.76;;;22.70;35.37
73245;BME280;61460;41.158;-73.238;2022-12-22T09:17:56;103093.90;;;22.78;35.89
73245;BME280;61460;41.158;-73.238;2022-12-22T09:20:26;103103.61;;;22.86;35.76
73245;BME280;61460;41.158;-73.238;2022-12-22T09:22:58;103113.16;;;22.92;36.03
73245;BME280;61460;41.158;-73.238;2022-12-22T09:25:28;103115.94;;;22.98;35.58
73245;BME280;61460;41.158;-73.238;2022-12-22T09:27:58;103114.73;;;22.68;35.54
73245;BME280;61460;41.158;-73.238;2022-12-22T09:30:29;103111.24;;;22.27;35.91
73245;BME280;61460;41.158;-73.238;2022-12-22T09:33:00;103111.00;;;22.57;35.65
73245;BME280;61460;41.158;-73.238;2022-12-22T09:35:31;103112.87;;;22.69;35.94
73245;BME280;61460;41.158;-73.238;2022-12-22T09:38:01;103106.75;;;22.88;36.31
73245;BME280;61460;41.158;-73.238;2022-12-22T09:40:32;103106.15;;;22.99;36.10
73245;BME280;61460;41.158;-73.238;2022-12-22T09:43:03;103102.41;;;23.03;36.11
73245;BME280;61460;41.158;-73.238;2022-12-22T09:45:34;103092.95;;;22.96;35.58
73245;BME280;61460;41.158;-73.238;2022-12-22T09:48:06;103083.20;;;22.35;36.04
73245;BME280;61460;41.158;-73.238;2022-12-22T09:50:36;103079.19;;;22.38;35.90
73245;BME280;61460;41.158;-73.238;2022-12-22T09:53:07;103082.60;;;22.65;36.30
73245;BME280;61460;41.158;-73.238;2022-12-22T09:55:40;103084.73;;;22.77;35.84
73245;BME280;61460;41.158;-73.238;2022-12-22T09:58:15;103092.44;;;22.82;35.84
73245;BME280;61460;41.158;-73.238;2022-12-22T10:00:37;103097.95;;;22.88;35.86
73245;BME280;61460;41.158;-73.238;2022-12-22T10:03:13;103103.38;;;22.95;35.75
73245;BME280;61460;41.158;-73.238;2022-12-22T10:05:44;103098.39;;;22.33;35.88
73245;BME280;61460;41.158;-73.238;2022-12-22T10:08:13;103098.17;;;22.31;35.70
73245;BME280;61460;41.158;-73.238;2022-12-22T10:10:40;103096.16;;;22.45;35.55
73245;BME280;61460;41.158;-73.238;2022-12-22T10:13:16;103097.25;;;22.59;36.32
73245;BME280;61460;41.158;-73.238;2022-12-22T10:15:41;103098.73;;;22.84;35.52
73245;BME280;61460;41.158;-73.238;2022-12-22T10:18:14;103096.36;;;22.89;35.67
73245;BME280;61460;41.158;-73.238;2022-12-22T10:20:45;103087.52;;;22.67;35.07
73245;BME280;61460;41.158;-73.238;2022-12-22T10:23:15;103081.17;;;22.16;35.91
73245;BME280;61460;41.158;-73.238;2022-12-22T10:28:18;103095.95;;;22.57;36.07
73245;BME280;61460;41.158;-73.238;2022-12-22T10:30:44;103089.10;;;22.74;35.66
73245;BME280;61460;41.158;-73.238;2022-12-22T10:33:17;103091.09;;;22.79;35.61
73245;BME280;61460;41.158;-73.238;2022-12-22T10:35:50;103090.35;;;22.76;35.49
73245;BME280;61460;41.158;-73.238;2022-12-22T10:38:21;103090.28;;;22.44;35.46
73245;BME280;61460;41.158;-73.238;2022-12-22T10:40:49;103086.04;;;22.37;35.50
73245;BME280;61460;41.158;-73.238;2022-12-22T10:43:19;103085.58;;;22.55;35.57
73245;BME280;61460;41.158;-73.238;2022-12-22T10:45:48;103085.37;;;22.34;36.54
73245;BME280;61460;41.158;-73.238;2022-12-22T10:48:25;103082.77;;;22.69;35.99
73245;BME280;61460;41.158;-73.238;2022-12-22T10:50:49;103081.81;;;22.73;36.29
73245;BME280;61460;41.158;-73.238;2022-12-22T10:53:20;103079.14;;;22.43;35.85
73245;BME280;61460;41.158;-73.238;2022-12-22T10:58:21;103070.73;;;22.18;35.98
73245;BME280;61460;41.158;-73.238;2022-12-22T11:01:00;103077.22;;;22.45;35.96
73245;BME280;61460;41.158;-73.238;2022-12-22T11:03:28;103085.70;;;22.60;35.84
73245;BME280;61460;41.158;-73.238;2022-12-22T11:05:53;103086.77;;;22.64;35.98
73245;BME280;61460;41.158;-73.238;2022-12-22T11:08:25;103085.26;;;22.61;36.11
73245;BME280;61460;41.158;-73.238;2022-12-22T11:11:00;103084.67;;;22.34;35.98
73245;BME280;61460;41.158;-73.238;2022-12-22T11:13:40;103084.07;;;22.36;36.02
73245;BME280;61460;41.158;-73.238;2022-12-22T11:16:01;103090.11;;;22.47;36.01
73245;BME280;61460;41.158;-73.238;2022-12-22T11:18:40;103093.86;;;22.45;36.25
73245;BME280;61460;41.158;-73.238;2022-12-22T11:21:01;103085.85;;;22.62;35.56
73245;BME280;61460;41.158;-73.238;2022-12-22T11:23:32;103079.97;;;22.71;36.17
73245;BME280;61460;41.158;-73.238;2022-12-22T11:26:06;103073.51;;;22.22;35.98
73245;BME280;61460;41.158;-73.238;2022-12-22T11:31:11;103066.09;;;22.20;35.91
73245;BME280;61460;41.158;-73.238;2022-12-22T11:33:40;103075.06;;;22.53;35.53
73245;BME280;61460;41.158;-73.238;2022-12-22T11:36:02;103072.28;;;22.69;35.63
73245;BME280;61460;41.158;-73.238;2022-12-22T11:38:42;103078.02;;;22.65;36.08
73245;BME280;61460;41.158;-73.238;2022-12-22T11:41:09;103074.94;;;22.69;35.71
73245;BME280;61460;41.158;-73.238;2022-12-22T11:43:41;103077.46;;;22.32;35.89
73245;BME280;61460;41.158;-73.238;2022-12-22T11:46:14;103080.71;;;22.09;35.91
73245;BME280;61460;41.158;-73.238;2022-12-22T11:51:10;103092.67;;;22.46;36.02
73245;BME280;61460;41.158;-73.238;2022-12-22T11:53:49;103087.33;;;22.63;35.81
73245;BME280;61460;41.158;-73.238;2022-12-22T11:56:16;103085.43;;;22.63;35.92
73245;BME280;61460;41.158;-73.238;2022-12-22T11:58:49;103087.78;;;22.09;35.91
73245;BME280;61460;41.158;-73.238;2022-12-22T12:01:17;103086.32;;;21.83;36.14
73245;BME280;61460;41.158;-73.238;2022-12-22T12:06:17;103075.30;;;22.28;36.10
73245;BME280;61460;41.158;-73.238;2022-12-22T12:08:50;103067.92;;;22.19;35.81
73245;BME280;61460;41.158;-73.238;2022-12-22T12:11:15;103066.57;;;22.41;36.37
73245;BME280;61460;41.158;-73.238;2022-12-22T12:13:46;103066.37;;;22.57;36.18
73245;BME280;61460;41.158;-73.238;2022-12-22T12:16:17;103065.04;;;22.30;35.86
73245;BME280;61460;41.158;-73.238;2022-12-22T12:18:53;103053.55;;;21.90;36.44
73245;BME280;61460;41.158;-73.238;2022-12-22T12:21:21;103056.09;;;22.06;36.75
73245;BME280;61460;41.158;-73.238;2022-12-22T12:23:51;103054.65;;;22.47;36.61
73245;BME280;61460;41.158;-73.238;2022-12-22T12:26:18;103059.86;;;22.32;36.62
73245;BME280;61460;41.158;-73.238;2022-12-22T12:28:52;103049.62;;;22.45;36.84
73245;BME280;61460;41.158;-73.238;2022-12-22T12:31:16;103049.10;;;22.36;36.74
73245;BME280;61460;41.158;-73.238;2022-12-22T12:33:47;103042.41;;;22.00;36.97
73245;BME280;61460;41.158;-73.238;2022-12-22T12:36:20;103039.03;;;22.20;36.58
73245;BME280;61460;41.158;-73.238;2022-12-22T12:38:53;103048.39;;;22.28;36.98
73245;BME280;61460;41.158;-73.238;2022-12-22T12:41:22;103036.32;;;22.49;36.38
73245;BME280;61460;41.158;-73.238;2022-12-22T12:43:49;103027.37;;;22.58;36.21
73245;BME280;61460;41.158;-73.238;2022-12-22T12:48:49;103014.52;;;21.90;36.83
73245;BME280;61460;41.158;-73.238;2022-12-22T12:58:52;103013.32;;;22.49;35.98
73245;BME280;61460;41.158;-73.238;2022-12-22T13:03:53;103001.39;;;22.41;36.05
73245;BME280;61460;41.158;-73.238;2022-12-22T13:11:33;102981.09;;;22.54;36.08
73245;BME280;61460;41.158;-73.238;2022-12-22T13:13:56;102962.84;;;22.57;36.14
73245;BME280;61460;41.158;-73.238;2022-12-22T13:16:30;102991.01;;;22.62;36.13
73245;BME280;61460;41.158;-73.238;2022-12-22T13:19:00;103023.01;;;22.51;36.31